sensor_id;sensor_type;location;lat;lon;timestamp;pressure;altitude;pressure_sealevel;temperature;humidity
3444;BME280;1736;52.068;6.968;2023-04-26T00:01:30;101326.69;;;2.66;95.57
3444;BME280;1736;52.068;6.968;2023-04-26T00:03:57;101334.03;;;2.58;95.44
3444;BME280;1736;52.068;6.968;2023-04-26T00:06:23;101341.94;;;2.57;96.17
3444;BME280;1736;52.068;6.968;2023-04-26T00:08:53;101334.28;;;2.52;96.71
3444;BME280;1736;52.068;6.968;2023-04-26T00:11:19;101332.75;;;2.47;96.96
3444;BME280;1736;52.068;6.968;2023-04-26T00:13:46;101332.88;;;2.44;97.10
3444;BME280;1736;52.068;6.968;2023-04-26T00:16:12;101337.47;;;2.39;97.21
3444;BME280;1736;52.068;6.968;2023-04-26T00:18:40;101336.66;;;2.37;97.16
3444;BME280;1736;52.068;6.968;2023-04-26T00:21:07;101337.56;;;2.36;97.11
3444;BME280;1736;52.068;6.968;2023-04-26T00:23:33;101338.50;;;2.35;98.00
3444;BME280;1736;52.068;6.968;2023-04-26T00:26:02;101332.44;;;2.33;98.03
3444;BME280;1736;52.068;6.968;2023-04-26T00:28:29;101330.09;;;2.27;98.08
3444;BME280;1736;52.068;6.968;2023-04-26T00:30:55;101327.19;;;2.33;98.38
3444;BME280;1736;52.068;6.968;2023-04-26T00:33:22;101330.97;;;2.26;98.48
3444;BME280;1736;52.068;6.968;2023-04-26T00:35:48;101326.00;;;2.20;98.52
3444;BME280;1736;52.068;6.968;2023-04-26T00:38:15;101326.00;;;2.20;98.79
3444;BME280;1736;52.068;6.968;2023-04-26T00:40:41;101325.06;;;2.21;98.56
3444;BME280;1736;52.068;6.968;2023-04-26T00:43:09;101326.09;;;2.17;98.96
3444;BME280;1736;52.068;6.968;2023-04-26T00:45:36;101324.66;;;2.10;98.97
3444;BME280;1736;52.068;6.968;2023-04-26T00:48:03;101326.41;;;2.09;98.96
3444;BME280;1736;52.068;6.968;2023-04-26T00:50:30;101326.47;;;2.08;98.44
3444;BME280;1736;52.068;6.968;2023-04-26T00:52:56;101321.22;;;2.08;98.37
3444;BME280;1736;52.068;6.968;2023-04-26T00:55:24;101315.38;;;2.01;98.74
3444;BME280;1736;52.068;6.968;2023-04-26T00:57:51;101316.25;;;2.02;99.74
3444;BME280;1736;52.068;6.968;2023-04-26T01:00:19;101313.75;;;1.99;99.67
3444;BME280;1736;52.068;6.968;2023-04-26T01:02:46;101319.19;;;1.93;100.00
3444;BME280;1736;52.068;6.968;2023-04-26T01:05:12;101310.38;;;1.95;99.70
3444;BME280;1736;52.068;6.968;2023-04-26T01:07:39;101316.84;;;1.87;100.00
3444;BME280;1736;52.068;6.968;2023-04-26T01:10:06;101317.75;;;1.86;100.00
3444;BME280;1736;52.068;6.968;2023-04-26T01:12:34;101312.06;;;1.75;100.00
3444;BME280;1736;52.068;6.968;2023-04-26T01:15:01;101311.13;;;1.76;100.00
3444;BME280;1736;52.068;6.968;2023-04-26T01:17:31;101308.63;;;1.73;100.00
3444;BME280;1736;52.068;6.968;2023-04-26T01:19:58;101314.78;;;1.72;100.00
3444;BME280;1736;52.068;6.968;2023-04-26T01:22:24;101314.72;;;1.73;100.00
3444;BME280;1736;52.068;6.968;2023-04-26T01:24:55;101312.94;;;1.75;100.00
3444;BME280;1736;52.068;6.968;2023-04-26T01:27:23;101323.53;;;1.71;100.00
3444;BME280;1736;52.068;6.968;2023-04-26T01:29:49;101314.88;;;1.69;100.00
3444;BME280;1736;52.068;6.968;2023-04-26T01:32:16;101325.59;;;1.63;100.00
3444;BME280;1736;52.068;6.968;2023-04-26T01:34:42;101310.00;;;1.60;100.00
3444;BME280;1736;52.068;6.968;2023-04-26T01:37:09;101317.13;;;1.56;100.00
3444;BME280;1736;52.068;6.968;2023-04-26T01:39:35;101319.78;;;1.55;100.00
3444;BME280;1736;52.068;6.968;2023-04-26T01:42:04;101325.06;;;1.53;100.00
3444;BME280;1736;52.068;6.968;2023-04-26T01:44:30;101318.44;;;1.45;100.00
3444;BME280;1736;52.068;6.968;2023-04-26T01:46:57;101331.44;;;1.46;100.00
3444;BME280;1736;52.068;6.968;2023-04-26T01:49:24;101325.88;;;1.55;100.00
3444;BME280;1736;52.068;6.968;2023-04-26T01:51:50;101314.66;;;1.52;100.00
3444;BME280;1736;52.068;6.968;2023-04-26T01:54:17;101313.22;;;1.45;100.00
3444;BME280;1736;52.068;6.968;2023-04-26T01:56:44;101321.94;;;1.44;100.00
3444;BME280;1736;52.068;6.968;2023-04-26T01:59:18;101321.06;;;1.45;100.00
3444;BME280;1736;52.068;6.968;2023-04-26T02:01:45;101317.69;;;1.41;100.00
3444;BME280;1736;52.068;6.968;2023-04-26T02:04:12;101325.47;;;1.43;100.00
3444;BME280;1736;52.068;6.968;2023-04-26T02:06:38;101322.16;;;1.38;100.00
3444;BME280;1736;52.068;6.968;2023-04-26T02:09:06;101331.78;;;1.37;100.00
3444;BME280;1736;52.068;6.968;2023-04-26T02:11:33;101329.34;;;1.33;100.00
3444;BME280;1736;52.068;6.968;2023-04-26T02:14:00;101326.78;;;1.31;100.00
3444;BME280;1736;52.068;6.968;2023-04-26T02:16:28;101331.31;;;1.26;100.00
3444;BME280;1736;52.068;6.968;2023-04-26T02:18:54;101340.88;;;1.27;100.00
3444;BME280;1736;52.068;6.968;2023-04-26T02:21:21;101332.97;;;1.29;100.00
3444;BME280;1736;52.068;6.968;2023-04-26T02:23:55;101337.44;;;1.25;100.00
3444;BME280;1736;52.068;6.968;2023-04-26T02:26:22;101322.75;;;1.21;100.00
3444;BME280;1736;52.068;6.968;2023-04-26T02:28:55;101335.00;;;1.21;100.00
3444;BME280;1736;52.068;6.968;2023-04-26T02:31:21;101332.38;;;1.21;100.00
3444;BME280;1736;52.068;6.968;2023-04-26T02:33:49;101335.88;;;1.20;100.00
3444;BME280;1736;52.068;6.968;2023-04-26T02:36:16;101335.97;;;1.18;100.00
3444;BME280;1736;52.068;6.968;2023-04-26T02:38:42;101334.94;;;1.22;100.00
3444;BME280;1736;52.068;6.968;2023-04-26T02:41:09;101332.34;;;1.22;100.00
3444;BME280;1736;52.068;6.968;2023-04-26T02:43:35;101337.47;;;1.24;100.00
3444;BME280;1736;52.068;6.968;2023-04-26T02:46:02;101338.63;;;1.17;100.00
3444;BME280;1736;52.068;6.968;2023-04-26T02:48:31;101329.88;;;1.18;100.00
3444;BME280;1736;52.068;6.968;2023-04-26T02:51:00;101322.03;;;1.18;100.00
3444;BME280;1736;52.068;6.968;2023-04-26T02:53:26;101326.34;;;1.19;100.00
3444;BME280;1736;52.068;6.968;2023-04-26T02:55:53;101334.19;;;1.19;100.00
3444;BME280;1736;52.068;6.968;2023-04-26T02:58:19;101319.19;;;1.24;100.00
3444;BME280;1736;52.068;6.968;2023-04-26T03:00:46;101322.63;;;1.26;100.00
3444;BME280;1736;52.068;6.968;2023-04-26T03:03:13;101336.47;;;1.28;100.00
3444;BME280;1736;52.068;6.968;2023-04-26T03:05:39;101324.88;;;1.35;100.00
3444;BME280;1736;52.068;6.968;2023-04-26T03:08:08;101320.25;;;1.43;100.00
3444;BME280;1736;52.068;6.968;2023-04-26T03:10:34;101326.00;;;1.52;100.00
3444;BME280;1736;52.068;6.968;2023-04-26T03:13:01;101332.72;;;1.59;100.00
3444;BME280;1736;52.068;6.968;2023-04-26T03:15:28;101335.13;;;1.64;100.00
3444;BME280;1736;52.068;6.968;2023-04-26T03:17:55;101329.56;;;1.73;100.00
3444;BME280;1736;52.068;6.968;2023-04-26T03:20:22;101322.63;;;1.95;100.00
3444;BME280;1736;52.068;6.968;2023-04-26T03:22:48;101331.41;;;1.94;100.00
3444;BME280;1736;52.068;6.968;2023-04-26T03:25:17;101332.06;;;1.99;100.00
3444;BME280;1736;52.068;6.968;2023-04-26T03:27:43;101334.56;;;2.02;100.00
3444;BME280;1736;52.068;6.968;2023-04-26T03:30:16;101318.66;;;2.06;100.00
3444;BME280;1736;52.068;6.968;2023-04-26T03:32:43;101326.34;;;2.11;100.00
3444;BME280;1736;52.068;6.968;2023-04-26T03:35:09;101319.75;;;2.01;100.00
3444;BME280;1736;52.068;6.968;2023-04-26T03:37:36;101317.28;;;1.98;100.00
3444;BME280;1736;52.068;6.968;2023-04-26T03:40:05;101315.69;;;1.94;100.00
3444;BME280;1736;52.068;6.968;2023-04-26T03:42:34;101303.50;;;1.93;100.00
3444;BME280;1736;52.068;6.968;2023-04-26T03:45:00;101310.50;;;1.92;100.00
3444;BME280;1736;52.068;6.968;2023-04-26T03:47:28;101301.84;;;1.90;100.00
3444;BME280;1736;52.068;6.968;2023-04-26T03:49:54;101301.75;;;1.93;100.00
3444;BME280;1736;52.068;6.968;2023-04-26T03:52:21;101300.88;;;1.93;100.00
3444;BME280;1736;52.068;6.968;2023-04-26T03:54:47;101309.66;;;1.92;100.00
3444;BME280;1736;52.068;6.968;2023-04-26T03:57:14;101304.66;;;1.86;100.00
3444;BME280;1736;52.068;6.968;2023-04-26T03:59:42;101304.66;;;1.86;100.00
3444;BME280;1736;52.068;6.968;2023-04-26T04:02:09;101303.13;;;1.80;100.00
3444;BME280;1736;52.068;6.968;2023-04-26T04:04:35;101292.59;;;1.82;100.00
3444;BME280;1736;52.068;6.968;2023-04-26T04:07:02;101297.69;;;1.85;100.00
3444;BME280;1736;52.068;6.968;2023-04-26T04:09:28;101296.81;;;1.86;100.00
3444;BME280;1736;52.068;6.968;2023-04-26T04:11:55;101299.28;;;1.89;100.00
3444;BME280;1736;52.068;6.968;2023-04-26T04:14:21;101306.38;;;1.87;100.00
3444;BME280;1736;52.068;6.968;2023-04-26T04:16:49;101297.69;;;1.85;100.00
3444;BME280;1736;52.068;6.968;2023-04-26T04:19:17;101301.50;;;1.78;100.00
3444;BME280;1736;52.068;6.968;2023-04-26T04:21:43;101304.31;;;1.72;100.00
3444;BME280;1736;52.068;6.968;2023-04-26T04:24:10;101312.34;;;1.67;100.00
3444;BME280;1736;52.068;6.968;2023-04-26T04:26:37;101321.22;;;1.63;100.00
3444;BME280;1736;52.068;6.968;2023-04-26T04:29:03;101321.28;;;1.62;100.00
3444;BME280;1736;52.068;6.968;2023-04-26T04:31:33;101324.00;;;1.59;100.00
3444;BME280;1736;52.068;6.968;2023-04-26T04:34:07;101316.22;;;1.57;100.00
3444;BME280;1736;52.068;6.968;2023-04-26T04:36:34;101314.47;;;1.58;100.00
3444;BME280;1736;52.068;6.968;2023-04-26T04:39:00;101315.47;;;1.54;100.00
3444;BME280;1736;52.068;6.968;2023-04-26T04:41:28;101324.34;;;1.50;100.00
3444;BME280;1736;52.068;6.968;2023-04-26T04:43:54;101323.53;;;1.48;100.00
3444;BME280;1736;52.068;6.968;2023-04-26T04:46:21;101323.31;;;1.54;100.00
3444;BME280;1736;52.068;6.968;2023-04-26T04:48:49;101323.47;;;1.49;100.00
3444;BME280;1736;52.068;6.968;2023-04-26T04:51:17;101321.50;;;1.56;100.00
3444;BME280;1736;52.068;6.968;2023-04-26T04:53:43;101327.69;;;1.53;100.00
3444;BME280;1736;52.068;6.968;2023-04-26T04:56:10;101320.53;;;1.58;100.00
3444;BME280;1736;52.068;6.968;2023-04-26T04:58:36;101326.63;;;1.59;100.00
3444;BME280;1736;52.068;6.968;2023-04-26T05:01:03;101323.91;;;1.62;100.00
3444;BME280;1736;52.068;6.968;2023-04-26T05:03:30;101336.97;;;1.62;100.00
3444;BME280;1736;52.068;6.968;2023-04-26T05:05:58;101334.16;;;1.66;100.00
3444;BME280;1736;52.068;6.968;2023-04-26T05:08:26;101331.41;;;1.71;100.00
3444;BME280;1736;52.068;6.968;2023-04-26T05:10:53;101339.91;;;1.76;100.00
3444;BME280;1736;52.068;6.968;2023-04-26T05:13:20;101333.03;;;1.96;100.00
3444;BME280;1736;52.068;6.968;2023-04-26T05:15:47;101335.03;;;2.11;100.00
3444;BME280;1736;52.068;6.968;2023-04-26T05:18:13;101340.75;;;2.44;100.00
3444;BME280;1736;52.068;6.968;2023-04-26T05:20:40;101339.75;;;2.68;100.00
3444;BME280;1736;52.068;6.968;2023-04-26T05:23:06;101334.78;;;3.02;100.00
3444;BME280;1736;52.068;6.968;2023-04-26T05:25:36;101343.25;;;3.28;100.00
3444;BME280;1736;52.068;6.968;2023-04-26T05:28:03;101332.66;;;3.50;100.00
3444;BME280;1736;52.068;6.968;2023-04-26T05:30:30;101341.94;;;3.77;97.96
3444;BME280;1736;52.068;6.968;2023-04-26T05:32:57;101338.09;;;4.02;96.33
3444;BME280;1736;52.068;6.968;2023-04-26T05:35:23;101342.75;;;4.33;95.22
3444;BME280;1736;52.068;6.968;2023-04-26T05:37:50;101349.69;;;4.52;93.22
3444;BME280;1736;52.068;6.968;2023-04-26T05:40:16;101352.81;;;4.60;92.29
3444;BME280;1736;52.068;6.968;2023-04-26T05:42:44;101350.03;;;4.45;90.91
3444;BME280;1736;52.068;6.968;2023-04-26T05:45:11;101347.44;;;4.26;91.37
3444;BME280;1736;52.068;6.968;2023-04-26T05:47:38;101358.63;;;4.31;91.45
3444;BME280;1736;52.068;6.968;2023-04-26T05:50:06;101360.66;;;4.43;91.59
3444;BME280;1736;52.068;6.968;2023-04-26T05:52:32;101366.88;;;4.41;91.10
3444;BME280;1736;52.068;6.968;2023-04-26T05:54:59;101368.75;;;4.39;91.34
3444;BME280;1736;52.068;6.968;2023-04-26T05:57:27;101370.88;;;4.31;91.13
3444;BME280;1736;52.068;6.968;2023-04-26T05:59:55;101367.13;;;4.36;90.99
3444;BME280;1736;52.068;6.968;2023-04-26T06:02:21;101371.38;;;4.20;91.35
3444;BME280;1736;52.068;6.968;2023-04-26T06:04:48;101369.19;;;4.30;91.82
3444;BME280;1736;52.068;6.968;2023-04-26T06:07:14;101366.38;;;4.51;92.17
3444;BME280;1736;52.068;6.968;2023-04-26T06:09:41;101371.91;;;4.64;91.52
3444;BME280;1736;52.068;6.968;2023-04-26T06:12:08;101376.44;;;4.96;90.40
3444;BME280;1736;52.068;6.968;2023-04-26T06:14:34;101385.59;;;5.23;88.78
3444;BME280;1736;52.068;6.968;2023-04-26T06:17:02;101388.81;;;5.45;86.65
3444;BME280;1736;52.068;6.968;2023-04-26T06:19:29;101394.41;;;5.39;85.63
3444;BME280;1736;52.068;6.968;2023-04-26T06:21:55;101385.41;;;5.60;85.16
3444;BME280;1736;52.068;6.968;2023-04-26T06:24:22;101389.22;;;5.87;86.04
3444;BME280;1736;52.068;6.968;2023-04-26T06:26:49;101402.03;;;6.10;83.88
3444;BME280;1736;52.068;6.968;2023-04-26T06:29:15;101393.25;;;5.94;84.92
3444;BME280;1736;52.068;6.968;2023-04-26T06:31:42;101402.09;;;5.93;85.43
3444;BME280;1736;52.068;6.968;2023-04-26T06:34:10;101398.88;;;6.19;84.12
3444;BME280;1736;52.068;6.968;2023-04-26T06:36:36;101396.28;;;6.50;82.22
3444;BME280;1736;52.068;6.968;2023-04-26T06:39:03;101400.03;;;6.31;82.00
3444;BME280;1736;52.068;6.968;2023-04-26T06:41:29;101403.09;;;6.54;81.98
3444;BME280;1736;52.068;6.968;2023-04-26T06:43:56;101391.59;;;6.55;82.19
3444;BME280;1736;52.068;6.968;2023-04-26T06:46:22;101399.66;;;6.52;82.47
3444;BME280;1736;52.068;6.968;2023-04-26T06:48:51;101400.03;;;6.46;82.36
3444;BME280;1736;52.068;6.968;2023-04-26T06:51:19;101398.31;;;6.45;81.28
3444;BME280;1736;52.068;6.968;2023-04-26T06:53:46;101401.81;;;6.61;81.82
3444;BME280;1736;52.068;6.968;2023-04-26T06:56:12;101407.16;;;6.75;81.39
3444;BME280;1736;52.068;6.968;2023-04-26T06:58:41;101395.25;;;6.84;81.47
3444;BME280;1736;52.068;6.968;2023-04-26T07:01:08;101407.03;;;6.92;81.04
3444;BME280;1736;52.068;6.968;2023-04-26T07:03:34;101406.25;;;7.06;80.37
3444;BME280;1736;52.068;6.968;2023-04-26T07:06:01;101402.16;;;7.00;79.40
3444;BME280;1736;52.068;6.968;2023-04-26T07:08:28;101402.66;;;7.07;80.04
3444;BME280;1736;52.068;6.968;2023-04-26T07:10:55;101393.63;;;7.11;79.28
3444;BME280;1736;52.068;6.968;2023-04-26T07:13:21;101403.41;;;7.38;78.91
3444;BME280;1736;52.068;6.968;2023-04-26T07:15:48;101395.44;;;7.54;78.28
3444;BME280;1736;52.068;6.968;2023-04-26T07:18:15;101400.34;;;7.16;77.91
3444;BME280;1736;52.068;6.968;2023-04-26T07:20:41;101402.44;;;7.25;78.27
3444;BME280;1736;52.068;6.968;2023-04-26T07:23:07;101409.06;;;7.32;77.96
3444;BME280;1736;52.068;6.968;2023-04-26T07:25:35;101404.69;;;7.17;78.15
3444;BME280;1736;52.068;6.968;2023-04-26T07:28:02;101405.59;;;7.02;78.49
3444;BME280;1736;52.068;6.968;2023-04-26T07:30:28;101400.41;;;6.85;78.99
3444;BME280;1736;52.068;6.968;2023-04-26T07:32:56;101405.44;;;6.74;79.69
3444;BME280;1736;52.068;6.968;2023-04-26T07:35:23;101402.53;;;6.94;79.44
3444;BME280;1736;52.068;6.968;2023-04-26T07:37:49;101401.41;;;6.98;78.38
3444;BME280;1736;52.068;6.968;2023-04-26T07:40:16;101397.16;;;7.25;76.42
3444;BME280;1736;52.068;6.968;2023-04-26T07:42:44;101395.63;;;7.51;76.37
3444;BME280;1736;52.068;6.968;2023-04-26T07:45:11;101403.72;;;7.48;74.46
3444;BME280;1736;52.068;6.968;2023-04-26T07:47:38;101407.13;;;7.50;74.73
3444;BME280;1736;52.068;6.968;2023-04-26T07:50:06;101405.38;;;7.64;74.48
3444;BME280;1736;52.068;6.968;2023-04-26T07:52:33;101400.56;;;7.71;74.44
3444;BME280;1736;52.068;6.968;2023-04-26T07:54:59;101411.78;;;7.60;73.78
3444;BME280;1736;52.068;6.968;2023-04-26T07:57:26;101403.59;;;7.79;73.68
3444;BME280;1736;52.068;6.968;2023-04-26T07:59:54;101405.09;;;7.97;73.83
3444;BME280;1736;52.068;6.968;2023-04-26T08:02:20;101410.69;;;8.20;72.97
3444;BME280;1736;52.068;6.968;2023-04-26T08:04:48;101398.19;;;8.50;72.12
3444;BME280;1736;52.068;6.968;2023-04-26T08:07:16;101400.31;;;8.58;70.67
3444;BME280;1736;52.068;6.968;2023-04-26T08:09:43;101403.59;;;8.75;71.96
3444;BME280;1736;52.068;6.968;2023-04-26T08:12:10;101405.25;;;8.90;70.79
3444;BME280;1736;52.068;6.968;2023-04-26T08:14:36;101404.72;;;8.71;70.09
3444;BME280;1736;52.068;6.968;2023-04-26T08:17:06;101406.50;;;8.85;70.39
3444;BME280;1736;52.068;6.968;2023-04-26T08:19:33;101405.59;;;8.98;68.23
3444;BME280;1736;52.068;6.968;2023-04-26T08:22:00;101408.50;;;9.08;68.79
3444;BME280;1736;52.068;6.968;2023-04-26T08:24:27;101403.97;;;9.22;69.36
3444;BME280;1736;52.068;6.968;2023-04-26T08:26:53;101404.59;;;9.13;67.68
3444;BME280;1736;52.068;6.968;2023-04-26T08:29:22;101405.34;;;8.89;66.94
3444;BME280;1736;52.068;6.968;2023-04-26T08:31:48;101403.13;;;9.22;67.70
3444;BME280;1736;52.068;6.968;2023-04-26T08:34:16;101403.56;;;9.28;65.25
3444;BME280;1736;52.068;6.968;2023-04-26T08:36:42;101401.47;;;9.46;64.47
3444;BME280;1736;52.068;6.968;2023-04-26T08:39:10;101408.06;;;9.65;63.17
3444;BME280;1736;52.068;6.968;2023-04-26T08:41:42;101407.84;;;9.43;61.93
3444;BME280;1736;52.068;6.968;2023-04-26T08:44:08;101411.88;;;9.99;61.66
3444;BME280;1736;52.068;6.968;2023-04-26T08:46:39;101412.53;;;9.90;59.70
3444;BME280;1736;52.068;6.968;2023-04-26T08:49:14;101410.19;;;9.60;58.67
3444;BME280;1736;52.068;6.968;2023-04-26T08:51:46;101417.41;;;9.58;59.74
3444;BME280;1736;52.068;6.968;2023-04-26T08:54:13;101413.28;;;9.15;60.88
3444;BME280;1736;52.068;6.968;2023-04-26T08:56:41;101409.94;;;9.38;60.96
3444;BME280;1736;52.068;6.968;2023-04-26T08:59:08;101416.16;;;9.37;59.57
3444;BME280;1736;52.068;6.968;2023-04-26T09:01:38;101415.09;;;9.27;60.04
3444;BME280;1736;52.068;6.968;2023-04-26T09:04:05;101406.88;;;9.44;59.90
3444;BME280;1736;52.068;6.968;2023-04-26T09:06:32;101417.78;;;9.40;57.84
3444;BME280;1736;52.068;6.968;2023-04-26T09:09:02;101417.28;;;9.47;61.77
3444;BME280;1736;52.068;6.968;2023-04-26T09:11:51;101417.13;;;9.36;59.38
3444;BME280;1736;52.068;6.968;2023-04-26T09:14:18;101412.03;;;9.33;61.00
3444;BME280;1736;52.068;6.968;2023-04-26T09:16:44;101408.06;;;9.14;60.37
3444;BME280;1736;52.068;6.968;2023-04-26T09:19:11;101408.59;;;9.19;60.56
3444;BME280;1736;52.068;6.968;2023-04-26T09:21:41;101410.63;;;9.54;59.95
3444;BME280;1736;52.068;6.968;2023-04-26T09:24:10;101409.66;;;9.55;59.73
3444;BME280;1736;52.068;6.968;2023-04-26T09:26:37;101413.56;;;10.00;58.67
3444;BME280;1736;52.068;6.968;2023-04-26T09:29:15;101410.50;;;10.18;57.67
3444;BME280;1736;52.068;6.968;2023-04-26T09:31:44;101422.28;;;10.02;57.72
3444;BME280;1736;52.068;6.968;2023-04-26T09:34:11;101417.84;;;10.15;56.87
3444;BME280;1736;52.068;6.968;2023-04-26T09:36:49;101404.56;;;10.02;54.64
3444;BME280;1736;52.068;6.968;2023-04-26T09:39:30;101417.53;;;10.07;53.69
3444;BME280;1736;52.068;6.968;2023-04-26T09:41:57;101404.56;;;9.90;56.15
3444;BME280;1736;52.068;6.968;2023-04-26T09:44:25;101404.16;;;10.08;57.56
3444;BME280;1736;52.068;6.968;2023-04-26T09:47:00;101399.69;;;10.21;58.55
3444;BME280;1736;52.068;6.968;2023-04-26T09:49:27;101412.09;;;10.33;56.36
3444;BME280;1736;52.068;6.968;2023-04-26T09:52:04;101406.28;;;10.16;56.65
3444;BME280;1736;52.068;6.968;2023-04-26T09:54:48;101402.75;;;10.28;57.39
3444;BME280;1736;52.068;6.968;2023-04-26T09:57:17;101398.31;;;10.03;56.83
3444;BME280;1736;52.068;6.968;2023-04-26T09:59:45;101406.28;;;10.16;58.37
3444;BME280;1736;52.068;6.968;2023-04-26T10:02:17;101398.53;;;10.00;56.14
3444;BME280;1736;52.068;6.968;2023-04-26T10:04:45;101397.16;;;9.82;56.17
3444;BME280;1736;52.068;6.968;2023-04-26T10:07:13;101403.41;;;10.06;54.11
3444;BME280;1736;52.068;6.968;2023-04-26T10:09:41;101390.25;;;9.92;54.49
3444;BME280;1736;52.068;6.968;2023-04-26T10:12:09;101392.19;;;9.90;54.60
3444;BME280;1736;52.068;6.968;2023-04-26T10:14:36;101394.28;;;9.85;54.98
3444;BME280;1736;52.068;6.968;2023-04-26T10:17:02;101393.25;;;9.75;55.53
3444;BME280;1736;52.068;6.968;2023-04-26T10:19:30;101393.44;;;9.72;55.26
3444;BME280;1736;52.068;6.968;2023-04-26T10:22:00;101395.97;;;9.61;55.83
3444;BME280;1736;52.068;6.968;2023-04-26T10:24:29;101393.09;;;9.39;56.57
3444;BME280;1736;52.068;6.968;2023-04-26T10:26:57;101388.81;;;9.24;58.28
3444;BME280;1736;52.068;6.968;2023-04-26T10:29:30;101398.53;;;9.11;58.87
3444;BME280;1736;52.068;6.968;2023-04-26T10:32:12;101390.84;;;9.21;57.46
3444;BME280;1736;52.068;6.968;2023-04-26T10:34:41;101390.75;;;9.22;58.20
3444;BME280;1736;52.068;6.968;2023-04-26T10:37:09;101388.25;;;9.07;59.13
3444;BME280;1736;52.068;6.968;2023-04-26T10:39:39;101389.47;;;8.89;59.97
3444;BME280;1736;52.068;6.968;2023-04-26T10:42:21;101392.72;;;9.06;59.94
3444;BME280;1736;52.068;6.968;2023-04-26T10:44:48;101390.59;;;9.11;60.03
3444;BME280;1736;52.068;6.968;2023-04-26T10:47:28;101393.50;;;8.94;60.46
3444;BME280;1736;52.068;6.968;2023-04-26T10:50:02;101391.50;;;8.98;59.89
3444;BME280;1736;52.068;6.968;2023-04-26T10:52:29;101396.69;;;8.99;60.50
3444;BME280;1736;52.068;6.968;2023-04-26T10:54:57;101396.53;;;9.15;59.72
3444;BME280;1736;52.068;6.968;2023-04-26T10:57:47;101394.91;;;9.51;59.63
3444;BME280;1736;52.068;6.968;2023-04-26T11:00:28;101390.84;;;9.33;58.34
3444;BME280;1736;52.068;6.968;2023-04-26T11:02:56;101396.38;;;9.30;57.95
3444;BME280;1736;52.068;6.968;2023-04-26T11:05:40;101391.75;;;9.71;58.50
3444;BME280;1736;52.068;6.968;2023-04-26T11:08:14;101392.06;;;9.92;56.08
3444;BME280;1736;52.068;6.968;2023-04-26T11:10:41;101389.22;;;9.82;57.09
3444;BME280;1736;52.068;6.968;2023-04-26T11:13:10;101382.31;;;9.92;56.16
3444;BME280;1736;52.068;6.968;2023-04-26T11:15:37;101387.69;;;9.53;56.75
3444;BME280;1736;52.068;6.968;2023-04-26T11:18:04;101381.56;;;9.90;56.35
3444;BME280;1736;52.068;6.968;2023-04-26T11:20:31;101380.50;;;10.05;56.36
3444;BME280;1736;52.068;6.968;2023-04-26T11:22:59;101379.66;;;9.92;55.71
3444;BME280;1736;52.068;6.968;2023-04-26T11:25:26;101376.69;;;10.22;54.99
3444;BME280;1736;52.068;6.968;2023-04-26T11:27:58;101373.84;;;10.48;54.65
3444;BME280;1736;52.068;6.968;2023-04-26T11:30:27;101383.25;;;10.89;56.00
3444;BME280;1736;52.068;6.968;2023-04-26T11:32:53;101378.63;;;11.03;49.50
3444;BME280;1736;52.068;6.968;2023-04-26T11:35:20;101382.47;;;11.34;50.32
3444;BME280;1736;52.068;6.968;2023-04-26T11:37:57;101384.53;;;11.41;50.19
3444;BME280;1736;52.068;6.968;2023-04-26T11:40:26;101379.97;;;11.43;50.41
3444;BME280;1736;52.068;6.968;2023-04-26T11:42:53;101386.06;;;10.75;48.66
3444;BME280;1736;52.068;6.968;2023-04-26T11:45:20;101381.41;;;10.78;49.72
3444;BME280;1736;52.068;6.968;2023-04-26T11:47:48;101382.44;;;10.76;51.13
3444;BME280;1736;52.068;6.968;2023-04-26T11:50:14;101381.06;;;10.46;53.59
3444;BME280;1736;52.068;6.968;2023-04-26T11:52:41;101388.31;;;10.44;54.20
3444;BME280;1736;52.068;6.968;2023-04-26T11:55:08;101383.88;;;10.32;54.33
3444;BME280;1736;52.068;6.968;2023-04-26T11:57:35;101381.44;;;10.29;55.42
3444;BME280;1736;52.068;6.968;2023-04-26T12:00:09;101384.59;;;10.34;55.15
3444;BME280;1736;52.068;6.968;2023-04-26T12:02:38;101379.66;;;10.17;56.23
3444;BME280;1736;52.068;6.968;2023-04-26T12:05:07;101380.28;;;9.96;56.11
3444;BME280;1736;52.068;6.968;2023-04-26T12:07:35;101381.38;;;9.81;55.23
3444;BME280;1736;52.068;6.968;2023-04-26T12:10:15;101384.53;;;9.61;55.37
3444;BME280;1736;52.068;6.968;2023-04-26T12:12:46;101385.19;;;9.52;53.78
3444;BME280;1736;52.068;6.968;2023-04-26T12:15:14;101387.59;;;9.55;54.84
3444;BME280;1736;52.068;6.968;2023-04-26T12:17:50;101394.72;;;9.54;53.68
3444;BME280;1736;52.068;6.968;2023-04-26T12:20:25;101386.66;;;9.68;53.95
3444;BME280;1736;52.068;6.968;2023-04-26T12:22:59;101381.97;;;9.72;54.79
3444;BME280;1736;52.068;6.968;2023-04-26T12:25:25;101390.16;;;10.19;54.33
3444;BME280;1736;52.068;6.968;2023-04-26T12:27:52;101384.53;;;10.23;54.89
3444;BME280;1736;52.068;6.968;2023-04-26T12:30:19;101386.59;;;10.43;53.68
3444;BME280;1736;52.068;6.968;2023-04-26T12:32:45;101391.03;;;10.56;52.37
3444;BME280;1736;52.068;6.968;2023-04-26T12:35:12;101392.69;;;10.93;51.76
3444;BME280;1736;52.068;6.968;2023-04-26T12:37:40;101389.09;;;10.57;51.03
3444;BME280;1736;52.068;6.968;2023-04-26T12:40:08;101390.38;;;11.23;49.76
3444;BME280;1736;52.068;6.968;2023-04-26T12:42:34;101386.25;;;11.53;50.51
3444;BME280;1736;52.068;6.968;2023-04-26T12:45:01;101387.91;;;11.89;48.58
3444;BME280;1736;52.068;6.968;2023-04-26T12:47:28;101386.22;;;11.88;49.83
3444;BME280;1736;52.068;6.968;2023-04-26T12:49:55;101383.19;;;11.70;47.38
3444;BME280;1736;52.068;6.968;2023-04-26T12:52:23;101386.56;;;11.72;48.38
3444;BME280;1736;52.068;6.968;2023-04-26T12:54:51;101388.44;;;11.48;51.17
3444;BME280;1736;52.068;6.968;2023-04-26T12:57:18;101386.25;;;11.53;49.63
3444;BME280;1736;52.068;6.968;2023-04-26T12:59:45;101382.09;;;11.73;47.88
3444;BME280;1736;52.068;6.968;2023-04-26T13:02:11;101382.59;;;12.00;47.82
3444;BME280;1736;52.068;6.968;2023-04-26T13:04:38;101377.16;;;12.34;48.14
3444;BME280;1736;52.068;6.968;2023-04-26T13:07:04;101375.53;;;12.54;46.79
3444;BME280;1736;52.068;6.968;2023-04-26T13:09:31;101379.63;;;12.69;45.61
3444;BME280;1736;52.068;6.968;2023-04-26T13:11:59;101361.75;;;12.60;46.58
3444;BME280;1736;52.068;6.968;2023-04-26T13:14:26;101375.06;;;12.60;46.68
3444;BME280;1736;52.068;6.968;2023-04-26T13:16:53;101376.50;;;12.64;46.82
3444;BME280;1736;52.068;6.968;2023-04-26T13:19:19;101378.72;;;12.90;46.32
3444;BME280;1736;52.068;6.968;2023-04-26T13:21:46;101378.22;;;12.96;44.84